createdAt,value
2019-02-04T00:00:47.524Z,87.38
2019-02-04T00:01:47.476Z,87.80
2019-02-04T00:02:47.472Z,87.38
2019-02-04T00:03:47.479Z,87.38
2019-02-04T00:04:47.457Z,87.38
2019-02-04T00:05:47.453Z,87.48
2019-02-04T00:06:47.443Z,87.48
2019-02-04T00:07:47.418Z,87.69
2019-02-04T00:08:47.555Z,87.48
2019-02-04T00:09:47.401Z,87.27
2019-02-04T00:10:47.395Z,87.27
2019-02-04T00:11:47.375Z,87.63
2019-02-04T00:12:47.367Z,87.38
2019-02-04T00:13:47.355Z,87.48
2019-02-04T00:14:47.343Z,87.38
2019-02-04T00:15:47.350Z,87.38
2019-02-04T00:16:47.330Z,87.27
2019-02-04T00:17:47.313Z,87.59
2019-02-04T00:18:47.302Z,87.73
2019-02-04T00:19:47.294Z,87.84
2019-02-04T00:20:47.293Z,87.21
2019-02-04T00:21:47.272Z,87.27
2019-02-04T00:22:47.266Z,87.59
2019-02-04T00:23:47.253Z,87.69
2019-02-04T00:24:47.241Z,87.48
2019-02-04T00:25:47.251Z,87.69
2019-02-04T00:26:51.606Z,87.80
2019-02-04T00:27:47.213Z,87.52
2019-02-04T00:28:47.238Z,87.31
2019-02-04T00:29:47.239Z,87.21
2019-02-04T00:30:47.220Z,87.31
2019-02-04T00:31:47.220Z,87.84
2019-02-04T00:32:47.189Z,87.94
2019-02-04T00:33:47.182Z,87.73
2019-02-04T00:34:47.142Z,87.84
2019-02-04T00:35:47.232Z,87.42
2019-02-04T00:36:47.119Z,87.21
2019-02-04T00:37:47.105Z,87.94
2019-02-04T00:38:47.095Z,87.42
2019-02-04T00:39:47.084Z,87.42
2019-02-04T00:40:47.083Z,87.42
2019-02-04T00:41:47.063Z,87.42
2019-02-04T00:42:47.054Z,87.10
2019-02-04T00:43:47.042Z,87.17
2019-02-04T00:44:47.031Z,87.63
2019-02-04T00:45:47.029Z,87.48
2019-02-04T00:46:52.180Z,87.84
2019-02-04T00:47:48.004Z,87.21
2019-02-04T00:48:46.989Z,87.52
2019-02-04T00:49:46.981Z,87.31
2019-02-04T00:50:46.981Z,87.42
2019-02-04T00:51:46.958Z,87.31
2019-02-04T00:52:47.011Z,87.59
2019-02-04T00:53:46.937Z,87.63
2019-02-04T00:54:46.927Z,87.52
2019-02-04T00:55:46.933Z,87.52
2019-02-04T00:56:46.914Z,87.84
2019-02-04T00:57:46.896Z,87.73
2019-02-04T00:58:46.889Z,87.73
2019-02-04T00:59:46.874Z,87.73
2019-02-04T01:00:46.884Z,87.94
2019-02-04T01:01:46.860Z,87.42
2019-02-04T01:02:46.846Z,87.52
2019-02-04T01:03:46.836Z,87.52
2019-02-04T01:04:46.822Z,87.52
2019-02-04T01:05:46.817Z,87.73
2019-02-04T01:06:46.817Z,87.94
2019-02-04T01:07:46.794Z,87.94
2019-02-04T01:08:46.787Z,87.84
2019-02-04T01:09:46.769Z,87.73
2019-02-04T01:10:46.761Z,87.73
2019-02-04T01:11:46.767Z,87.84
2019-02-04T01:12:46.746Z,87.52
2019-02-04T01:13:46.746Z,88.26
2019-02-04T01:14:46.723Z,88.04
2019-02-04T01:15:46.713Z,87.94
2019-02-04T01:16:46.709Z,88.36
2019-02-04T01:17:46.692Z,89.05
2019-02-04T01:18:46.695Z,88.53
2019-02-04T01:19:46.674Z,88.36
2019-02-04T01:20:46.656Z,88.21
2019-02-04T01:21:46.679Z,87.90
2019-02-04T01:22:46.648Z,87.69
2019-02-04T01:23:46.628Z,87.52
2019-02-04T01:24:48.235Z,87.42
2019-02-04T01:25:46.611Z,87.52
2019-02-04T01:26:46.607Z,87.52
2019-02-04T01:27:46.586Z,87.42
2019-02-04T01:28:46.577Z,87.94
2019-02-04T01:29:46.566Z,87.73
2019-02-04T01:30:46.552Z,87.84
2019-02-04T01:31:46.553Z,88.09
2019-02-04T01:32:46.531Z,88.29
2019-02-04T01:33:46.521Z,88.99
2019-02-04T01:34:48.910Z,88.82
2019-02-04T01:35:46.506Z,88.19
2019-02-04T01:36:46.501Z,88.61
2019-02-04T01:37:46.479Z,89.03
2019-02-04T01:38:46.472Z,88.92
2019-02-04T01:39:46.465Z,89.03
2019-02-04T01:40:46.450Z,88.92
2019-02-04T01:41:46.458Z,88.92
2019-02-04T01:42:46.431Z,88.86
2019-02-04T01:43:46.419Z,89.45
2019-02-04T01:44:46.409Z,89.17
2019-02-04T01:45:46.423Z,89.86
2019-02-04T01:46:46.414Z,90.74
2019-02-04T01:47:46.380Z,90.59
2019-02-04T01:48:46.370Z,90.22
2019-02-04T01:49:46.355Z,90.22
2019-02-04T01:50:46.344Z,90.08
2019-02-04T01:51:46.346Z,90.43
2019-02-04T01:52:46.325Z,90.91
2019-02-04T01:53:46.319Z,90.91
2019-02-04T01:54:46.310Z,90.11
2019-02-04T01:55:46.295Z,91.06
2019-02-04T01:56:46.296Z,90.84
2019-02-04T01:57:46.275Z,90.81
2019-02-04T01:58:46.265Z,90.81
2019-02-04T01:59:46.256Z,90.81
2019-02-04T02:00:46.255Z,90.84
2019-02-04T02:01:46.274Z,90.81
2019-02-04T02:02:46.228Z,90.70
2019-02-04T02:03:46.213Z,90.74
2019-02-04T02:04:46.206Z,89.65
2019-02-04T02:05:46.203Z,90.81
2019-02-04T02:06:46.200Z,89.76
2019-02-04T02:07:46.185Z,89.65
2019-02-04T02:08:46.159Z,90.59
2019-02-04T02:09:46.149Z,90.74
2019-02-04T02:10:46.140Z,89.90
2019-02-04T02:11:46.133Z,90.49
2019-02-04T02:12:46.149Z,90.11
2019-02-04T02:13:46.112Z,90.70
2019-02-04T02:14:46.097Z,90.64
2019-02-04T02:15:46.089Z,91.02
2019-02-04T02:16:46.081Z,90.95
2019-02-04T02:17:46.079Z,90.91
2019-02-04T02:18:46.060Z,90.49
2019-02-04T02:19:46.050Z,90.18
2019-02-04T02:20:46.039Z,90.39
2019-02-04T02:21:46.030Z,90.49
2019-02-04T02:22:46.043Z,90.49
2019-02-04T02:23:46.011Z,90.84
2019-02-04T02:24:45.994Z,90.11
2019-02-04T02:25:45.985Z,90.70
2019-02-04T02:26:45.976Z,90.70
2019-02-04T02:27:45.976Z,90.70
2019-02-04T02:28:45.954Z,90.64
2019-02-04T02:29:45.952Z,90.53
2019-02-04T02:30:45.934Z,90.74
2019-02-04T02:31:45.917Z,90.22
2019-02-04T02:32:45.941Z,90.74
2019-02-04T02:33:45.902Z,90.74
2019-02-04T02:34:45.896Z,90.91
2019-02-04T02:35:45.886Z,90.81
2019-02-04T02:36:45.876Z,90.49
2019-02-04T02:37:45.874Z,90.59
2019-02-04T02:38:45.846Z,90.53
2019-02-04T02:39:45.846Z,90.59
2019-02-04T02:40:45.827Z,90.64
2019-02-04T02:41:45.825Z,90.59
2019-02-04T02:42:45.813Z,90.33
2019-02-04T02:43:45.793Z,90.70
2019-02-04T02:44:45.790Z,90.74
2019-02-04T02:45:45.782Z,90.33
2019-02-04T02:46:45.774Z,90.53
2019-02-04T02:47:45.772Z,90.33
2019-02-04T02:48:45.749Z,90.74
2019-02-04T02:49:45.733Z,90.47
2019-02-04T02:50:45.726Z,90.43
2019-02-04T02:51:45.716Z,90.99
2019-02-04T02:52:45.717Z,90.99
2019-02-04T02:53:45.698Z,91.31
2019-02-04T02:54:45.681Z,91.31
2019-02-04T02:55:45.679Z,91.20
2019-02-04T02:56:45.662Z,91.31
2019-02-04T02:57:45.663Z,91.72
2019-02-04T02:58:45.672Z,91.52
2019-02-04T02:59:45.629Z,91.41
2019-02-04T03:00:45.626Z,91.94
2019-02-04T03:01:45.610Z,92.04
2019-02-04T03:02:45.617Z,92.04
2019-02-04T03:03:45.608Z,92.14
2019-02-04T03:04:45.579Z,92.50
2019-02-04T03:05:45.567Z,92.14
2019-02-04T03:06:45.553Z,92.14
2019-02-04T03:07:45.558Z,92.25
2019-02-04T03:08:45.535Z,92.04
2019-02-04T03:09:45.527Z,92.14
2019-02-04T03:10:45.521Z,92.46
2019-02-04T03:11:45.507Z,92.04
2019-02-04T03:12:45.504Z,92.71
2019-02-04T03:13:45.481Z,91.98
2019-02-04T03:14:45.483Z,92.61
2019-02-04T03:15:45.465Z,92.50
2019-02-04T03:16:45.461Z,92.77
2019-02-04T03:17:51.852Z,92.50
2019-02-04T03:18:46.426Z,92.50
2019-02-04T03:19:45.420Z,92.40
2019-02-04T03:20:45.412Z,92.29
2019-02-04T03:21:45.411Z,93.13
2019-02-04T03:22:45.397Z,92.92
2019-02-04T03:23:45.397Z,93.34
2019-02-04T03:24:45.372Z,93.02
2019-02-04T03:25:45.360Z,93.02
2019-02-04T03:26:45.347Z,93.34
2019-02-04T03:27:45.344Z,93.02
2019-02-04T03:28:45.339Z,93.44
2019-02-04T03:29:45.315Z,92.98
2019-02-04T03:30:45.306Z,92.71
2019-02-04T03:31:46.262Z,93.34
2019-02-04T03:32:45.290Z,93.44
2019-02-04T03:33:45.285Z,93.19
2019-02-04T03:34:45.263Z,93.24
2019-02-04T03:35:45.255Z,93.34
2019-02-04T03:36:45.243Z,92.61
2019-02-04T03:37:45.240Z,93.34
2019-02-04T03:38:45.244Z,93.34
2019-02-04T03:39:45.220Z,93.55
2019-02-04T03:40:45.201Z,93.55
2019-02-04T03:41:45.192Z,93.76
2019-02-04T03:42:45.178Z,93.55
2019-02-04T03:43:45.282Z,93.76
2019-02-04T03:44:45.164Z,93.55
2019-02-04T03:45:45.166Z,93.55
2019-02-04T03:46:45.138Z,93.51
2019-02-04T03:47:45.177Z,93.40
2019-02-04T03:48:45.127Z,93.30
2019-02-04T03:49:45.107Z,93.40
2019-02-04T03:50:45.108Z,93.02
2019-02-04T03:51:45.091Z,92.98
2019-02-04T03:52:45.077Z,92.98
2019-02-04T03:53:45.078Z,93.44
2019-02-04T03:54:45.053Z,93.51
2019-02-04T03:55:45.043Z,93.51
2019-02-04T03:56:45.043Z,93.51
2019-02-04T03:57:45.029Z,93.51
2019-02-04T03:58:45.022Z,93.40
2019-02-04T03:59:45.001Z,93.34
2019-02-04T04:00:44.991Z,93.40
2019-02-04T04:01:44.987Z,93.40
2019-02-04T04:02:44.977Z,93.40
2019-02-04T04:03:44.987Z,93.40
2019-02-04T04:04:44.951Z,93.40
2019-02-04T04:05:44.941Z,93.61
2019-02-04T04:06:44.931Z,93.71
2019-02-04T04:07:44.921Z,93.51
2019-02-04T04:08:44.920Z,93.40
2019-02-04T04:09:44.898Z,93.19
2019-02-04T04:10:44.890Z,93.61
2019-02-04T04:11:44.878Z,93.30
2019-02-04T04:12:44.878Z,93.30
2019-02-04T04:13:44.869Z,93.08
2019-02-04T04:14:44.852Z,92.77
2019-02-04T04:15:44.835Z,93.34
2019-02-04T04:16:44.822Z,92.88
2019-02-04T04:17:44.813Z,93.30
2019-02-04T04:18:44.839Z,93.51
2019-02-04T04:19:44.793Z,93.93
2019-02-04T04:20:44.791Z,93.71
2019-02-04T04:21:44.775Z,93.71
2019-02-04T04:22:44.765Z,93.71
2019-02-04T04:23:44.766Z,93.61
2019-02-04T04:24:44.742Z,94.03
2019-02-04T04:25:44.729Z,93.93
2019-02-04T04:26:44.740Z,93.93
2019-02-04T04:27:44.735Z,93.71
2019-02-04T04:28:44.710Z,93.57
2019-02-04T04:29:44.688Z,93.57
2019-02-04T04:30:44.677Z,93.46
2019-02-04T04:31:44.671Z,93.57
2019-02-04T04:32:44.662Z,93.46
2019-02-04T04:33:44.658Z,93.82
2019-02-04T04:34:44.639Z,93.46
2019-02-04T04:35:44.625Z,93.67
2019-02-04T04:36:44.619Z,93.46
2019-02-04T04:37:44.604Z,93.36
2019-02-04T04:38:44.609Z,93.36
2019-02-04T04:39:44.587Z,93.36
2019-02-04T04:40:44.576Z,93.46
2019-02-04T04:41:44.580Z,93.46
2019-02-04T04:42:44.572Z,93.26
2019-02-04T04:43:44.589Z,93.42
2019-02-04T04:44:44.536Z,93.42
2019-02-04T04:45:44.521Z,92.69
2019-02-04T04:46:44.520Z,93.11
2019-02-04T04:47:44.513Z,92.90
2019-02-04T04:48:44.515Z,92.63
2019-02-04T04:49:44.486Z,92.58
2019-02-04T04:50:44.475Z,92.69
2019-02-04T04:51:44.467Z,92.48
2019-02-04T04:52:44.453Z,92.16
2019-02-04T04:53:44.451Z,92.16
2019-02-04T04:54:44.430Z,92.38
2019-02-04T04:55:44.425Z,92.27
2019-02-04T04:56:44.409Z,92.27
2019-02-04T04:57:44.396Z,92.48
2019-02-04T04:58:44.397Z,91.96
2019-02-04T04:59:44.382Z,92.16
2019-02-04T05:00:44.368Z,92.27
2019-02-04T05:01:44.354Z,92.21
2019-02-04T05:02:44.346Z,92.21
2019-02-04T05:03:44.350Z,92.52
2019-02-04T05:04:44.326Z,92.52
2019-02-04T05:05:44.322Z,93.04
2019-02-04T05:06:44.302Z,92.31
2019-02-04T05:07:44.293Z,92.83
2019-02-04T05:08:44.298Z,92.63
2019-02-04T05:09:44.281Z,92.67
2019-02-04T05:10:44.271Z,92.73
2019-02-04T05:11:44.265Z,93.04
2019-02-04T05:12:44.255Z,93.19
2019-02-04T05:13:44.251Z,93.19
2019-02-04T05:14:44.233Z,93.40
2019-02-04T05:15:44.210Z,93.19
2019-02-04T05:16:44.268Z,93.30
2019-02-04T05:17:44.192Z,93.19
2019-02-04T05:18:44.229Z,93.51
2019-02-04T05:19:44.168Z,93.51
2019-02-04T05:20:44.166Z,93.51
2019-02-04T05:21:44.156Z,93.57
2019-02-04T05:22:44.142Z,93.61
2019-02-04T05:23:44.161Z,93.51
2019-02-04T05:24:44.138Z,93.30
2019-02-04T05:25:44.109Z,93.30
2019-02-04T05:26:44.102Z,93.40
2019-02-04T05:27:44.087Z,93.51
2019-02-04T05:28:44.086Z,93.61
2019-02-04T05:29:44.098Z,93.82
2019-02-04T05:30:44.056Z,93.61
2019-02-04T05:31:44.050Z,93.71
2019-02-04T05:32:44.036Z,93.71
2019-02-04T05:33:44.023Z,93.61
2019-02-04T05:34:44.029Z,93.51
2019-02-04T05:35:44.002Z,93.76
2019-02-04T05:36:43.995Z,93.71
2019-02-04T05:37:43.984Z,93.82
2019-02-04T05:38:44.053Z,94.13
2019-02-04T05:39:43.974Z,93.99
2019-02-04T05:40:43.958Z,93.93
2019-02-04T05:41:43.948Z,94.20
2019-02-04T05:42:43.930Z,93.67
2019-02-04T05:43:43.921Z,93.88
2019-02-04T05:44:43.934Z,93.57
2019-02-04T05:45:43.899Z,93.36
2019-02-04T05:46:43.904Z,93.36
2019-02-04T05:47:43.886Z,93.36
2019-02-04T05:48:49.543Z,93.15
2019-02-04T05:49:44.867Z,93.30
2019-02-04T05:50:44.736Z,92.94
2019-02-04T05:51:43.838Z,92.83
2019-02-04T05:52:43.832Z,92.94
2019-02-04T05:53:43.813Z,92.52
2019-02-04T05:54:43.820Z,92.98
2019-02-04T05:55:43.795Z,92.77
2019-02-04T05:56:43.784Z,93.04
2019-02-04T05:57:43.780Z,93.36
2019-02-04T05:58:43.765Z,93.46
2019-02-04T05:59:43.774Z,93.46
2019-02-04T06:00:43.751Z,93.46
2019-02-04T06:01:43.732Z,93.15
2019-02-04T06:02:43.728Z,93.36
2019-02-04T06:03:43.715Z,93.36
2019-02-04T06:04:43.721Z,93.30
2019-02-04T06:05:43.700Z,92.57
2019-02-04T06:06:43.684Z,93.15
2019-02-04T06:07:43.671Z,93.30
2019-02-04T06:08:43.661Z,93.46
2019-02-04T06:09:43.663Z,93.36
2019-02-04T06:10:43.646Z,93.46
2019-02-04T06:11:43.636Z,93.26
2019-02-04T06:12:43.619Z,92.94
2019-02-04T06:13:43.610Z,92.94
2019-02-04T06:14:43.605Z,92.94
2019-02-04T06:15:43.591Z,92.98
2019-02-04T06:16:43.578Z,93.40
2019-02-04T06:17:43.572Z,92.35
2019-02-04T06:18:43.563Z,92.88
2019-02-04T06:19:43.579Z,93.19
2019-02-04T06:20:43.536Z,92.98
2019-02-04T06:21:43.542Z,93.19
2019-02-04T06:22:43.546Z,93.30
2019-02-04T06:23:43.515Z,93.51
2019-02-04T06:24:43.495Z,93.61
2019-02-04T06:25:43.512Z,93.61
2019-02-04T06:26:43.473Z,93.61
2019-02-04T06:27:43.464Z,93.61
2019-02-04T06:28:43.450Z,93.61
2019-02-04T06:29:43.443Z,94.13
2019-02-04T06:30:43.449Z,94.13
2019-02-04T06:31:43.440Z,93.61
2019-02-04T06:32:43.415Z,93.61
2019-02-04T06:33:43.400Z,93.61
2019-02-04T06:34:43.389Z,93.71
2019-02-04T06:35:43.400Z,93.71
2019-02-04T06:36:43.376Z,93.78
2019-02-04T06:37:43.389Z,93.51
2019-02-04T06:38:43.346Z,93.61
2019-02-04T06:39:43.421Z,93.71
2019-02-04T06:40:43.338Z,93.71
2019-02-04T06:41:43.321Z,93.40
2019-02-04T06:42:43.314Z,93.71
2019-02-04T06:43:43.303Z,93.57
2019-02-04T06:44:43.306Z,93.51
2019-02-04T06:45:45.910Z,93.51
2019-02-04T06:46:43.265Z,93.71
2019-02-04T06:47:43.259Z,93.61
2019-02-04T06:48:43.305Z,93.67
2019-02-04T06:49:43.236Z,93.93
2019-02-04T06:50:43.245Z,93.46
2019-02-04T06:51:43.212Z,93.67
2019-02-04T06:52:43.204Z,93.63
2019-02-04T06:53:43.194Z,93.52
2019-02-04T06:54:43.186Z,93.52
2019-02-04T06:55:43.194Z,93.32
2019-02-04T06:56:43.163Z,93.21
2019-02-04T06:57:43.161Z,93.11
2019-02-04T06:58:43.147Z,92.44
2019-02-04T06:59:43.130Z,92.65
2019-02-04T07:00:43.134Z,92.58
2019-02-04T07:01:43.119Z,92.44
2019-02-04T07:02:43.097Z,92.13
2019-02-04T07:03:43.090Z,92.33
2019-02-04T07:04:43.080Z,91.77
2019-02-04T07:05:44.073Z,91.35
2019-02-04T07:06:43.056Z,90.68
2019-02-04T07:07:43.172Z,90.68
2019-02-04T07:08:43.036Z,90.58
2019-02-04T07:09:43.029Z,89.84
2019-02-04T07:10:43.073Z,90.26
2019-02-04T07:11:43.006Z,89.89
2019-02-04T07:12:43.116Z,90.58
2019-02-04T07:13:42.991Z,90.62
2019-02-04T07:14:42.975Z,90.72
2019-02-04T07:15:42.966Z,90.72
2019-02-04T07:16:43.023Z,90.09
2019-02-04T07:17:42.948Z,90.41
2019-02-04T07:18:42.936Z,90.83
2019-02-04T07:19:42.936Z,90.62
2019-02-04T07:20:42.914Z,90.62
2019-02-04T07:21:42.921Z,90.72
2019-02-04T07:22:42.912Z,90.75
2019-02-04T07:23:42.882Z,89.24
2019-02-04T07:24:43.241Z,88.57
2019-02-04T07:25:42.872Z,87.49
2019-02-04T07:26:42.849Z,87.20
2019-02-04T07:27:42.937Z,84.66
2019-02-04T07:28:42.829Z,84.00
2019-02-04T07:29:42.819Z,82.82
2019-02-04T07:30:42.817Z,82.26
2019-02-04T07:31:42.800Z,81.39
2019-02-04T07:32:42.788Z,80.73
2019-02-04T07:33:42.785Z,79.69
2019-02-04T07:34:42.769Z,80.18
2019-02-04T07:35:42.782Z,78.61
2019-02-04T07:36:42.742Z,78.41
2019-02-04T07:37:42.731Z,78.51
2019-02-04T07:38:42.722Z,78.30
2019-02-04T07:39:42.728Z,78.37
2019-02-04T07:40:42.747Z,77.51
2019-02-04T07:41:42.690Z,76.29
2019-02-04T07:42:42.679Z,74.50
2019-02-04T07:43:42.671Z,73.43
2019-02-04T07:44:42.671Z,73.60
2019-02-04T07:45:42.653Z,74.19
2019-02-04T07:46:42.652Z,75.26
2019-02-04T07:47:42.690Z,76.12
2019-02-04T07:48:42.617Z,77.09
2019-02-04T07:49:42.616Z,77.06
2019-02-04T07:50:42.596Z,75.71
2019-02-04T07:51:42.618Z,74.08
2019-02-04T07:52:42.577Z,72.25
2019-02-04T07:53:42.564Z,71.15
2019-02-04T07:54:42.556Z,69.47
2019-02-04T07:55:42.543Z,68.37
2019-02-04T07:56:42.560Z,66.93
2019-02-04T07:57:42.539Z,66.89
2019-02-04T07:58:42.512Z,65.73
2019-02-04T07:59:42.638Z,65.18
2019-02-04T08:00:42.504Z,65.15
2019-02-04T08:01:42.495Z,64.22
2019-02-04T08:02:42.470Z,63.68
2019-02-04T08:03:42.460Z,63.45
2019-02-04T08:04:42.457Z,62.62
2019-02-04T08:05:42.437Z,61.87
2019-02-04T08:06:42.444Z,60.94
2019-02-04T08:07:42.423Z,60.12
2019-02-04T08:08:42.433Z,60.61
2019-02-04T08:09:42.399Z,59.78
2019-02-04T08:10:42.397Z,59.78
2019-02-04T08:11:42.396Z,59.55
2019-02-04T08:12:42.364Z,59.52
2019-02-04T08:13:42.356Z,59.11
2019-02-04T08:14:45.148Z,59.11
2019-02-04T08:15:42.332Z,58.59
2019-02-04T08:16:42.361Z,58.50
2019-02-04T08:17:42.314Z,58.91
2019-02-04T08:18:42.298Z,58.93
2019-02-04T08:19:47.330Z,59.55
2019-02-04T08:20:43.278Z,59.45
2019-02-04T08:21:42.283Z,59.75
2019-02-04T08:22:42.256Z,59.34
2019-02-04T08:23:42.244Z,59.34
2019-02-04T08:24:42.239Z,59.58
2019-02-04T08:25:42.247Z,60.19
2019-02-04T08:26:42.257Z,59.89
2019-02-04T08:27:42.234Z,60.30
2019-02-04T08:28:42.195Z,59.55
2019-02-04T08:29:42.218Z,59.65
2019-02-04T08:30:42.178Z,59.01
2019-02-04T08:31:42.170Z,58.50
2019-02-04T08:32:42.158Z,58.91
2019-02-04T08:33:42.142Z,58.50
2019-02-04T08:34:42.125Z,59.22
2019-02-04T08:35:42.187Z,58.93
2019-02-04T08:36:44.322Z,59.14
2019-02-04T08:37:42.125Z,59.14
2019-02-04T08:38:42.087Z,59.24
2019-02-04T08:39:42.080Z,59.17
2019-02-04T08:40:42.063Z,59.34
2019-02-04T08:41:42.058Z,58.83
2019-02-04T08:42:42.054Z,58.91
2019-02-04T08:43:42.101Z,59.17
2019-02-04T08:44:42.046Z,60.63
2019-02-04T08:45:42.049Z,61.38
2019-02-04T08:46:42.002Z,61.46
2019-02-04T08:47:42.000Z,61.35
2019-02-04T08:48:41.979Z,61.56
2019-02-04T08:49:41.971Z,60.84
2019-02-04T08:50:41.955Z,59.78
2019-02-04T08:51:41.946Z,59.61
2019-02-04T08:52:41.957Z,61.07
2019-02-04T08:53:41.923Z,62.26
2019-02-04T08:54:41.913Z,62.85
2019-02-04T08:55:41.905Z,62.31
2019-02-04T08:56:43.038Z,62.07
2019-02-04T08:57:41.893Z,61.90
2019-02-04T08:58:41.872Z,62.13
2019-02-04T08:59:41.860Z,61.80
2019-02-04T09:00:41.846Z,61.15
2019-02-04T09:01:41.838Z,59.96
2019-02-04T09:02:41.853Z,59.34
2019-02-04T09:03:41.837Z,59.31
2019-02-04T09:04:41.811Z,58.59
2019-02-04T09:05:41.813Z,58.57
2019-02-04T09:06:42.013Z,57.51
2019-02-04T09:07:41.786Z,57.51
2019-02-04T09:08:41.770Z,57.51
2019-02-04T09:09:41.759Z,58.26
2019-02-04T09:10:41.746Z,58.80
2019-02-04T09:11:41.743Z,58.78
2019-02-04T09:12:41.734Z,58.08
2019-02-04T09:13:41.714Z,57.51
2019-02-04T09:14:41.699Z,57.54
2019-02-04T09:15:41.691Z,58.06
2019-02-04T09:16:41.710Z,58.78
2019-02-04T09:17:41.840Z,58.91
2019-02-04T09:18:44.883Z,58.91
2019-02-04T09:19:41.645Z,58.91
2019-02-04T09:20:41.634Z,58.39
2019-02-04T09:21:41.624Z,58.59
2019-02-04T09:22:41.623Z,58.70
2019-02-04T09:23:41.601Z,58.57
2019-02-04T09:24:41.588Z,57.93
2019-02-04T09:25:41.584Z,57.28
2019-02-04T09:26:41.570Z,57.36
2019-02-04T09:27:41.572Z,57.39
2019-02-04T09:28:41.545Z,56.13
2019-02-04T09:29:41.580Z,56.02
2019-02-04T09:30:41.569Z,55.92
2019-02-04T09:31:41.514Z,56.56
2019-02-04T09:32:41.541Z,56.13
2019-02-04T09:33:41.497Z,56.23
2019-02-04T09:34:41.482Z,55.62
2019-02-04T09:35:41.510Z,55.72
2019-02-04T09:36:41.477Z,55.92
2019-02-04T09:37:41.468Z,55.92
2019-02-04T09:38:41.451Z,56.20
2019-02-04T09:39:41.445Z,56.41
2019-02-04T09:40:41.417Z,55.49
2019-02-04T09:41:41.430Z,55.82
2019-02-04T09:42:41.412Z,56.23
2019-02-04T09:43:41.384Z,56.34
2019-02-04T09:44:41.374Z,56.02
2019-02-04T09:45:41.366Z,56.02
2019-02-04T09:46:41.362Z,55.79
2019-02-04T09:47:41.370Z,55.49
2019-02-04T09:48:41.332Z,55.59
2019-02-04T09:49:41.331Z,56.00
2019-02-04T09:50:41.309Z,55.59
2019-02-04T09:51:41.298Z,56.64
2019-02-04T09:52:41.316Z,56.54
2019-02-04T09:53:41.310Z,57.15
2019-02-04T09:54:41.264Z,57.15
2019-02-04T09:55:41.257Z,56.85
2019-02-04T09:56:41.241Z,56.95
2019-02-04T09:57:41.256Z,56.43
2019-02-04T09:58:41.231Z,56.23
2019-02-04T09:59:41.219Z,56.26
2019-02-04T10:00:41.201Z,56.98
2019-02-04T10:01:41.188Z,56.87
2019-02-04T10:02:41.180Z,57.49
2019-02-04T10:03:41.199Z,57.79
2019-02-04T10:04:41.155Z,57.21
2019-02-04T10:05:41.147Z,57.18
2019-02-04T10:06:41.134Z,57.59
2019-02-04T10:07:41.126Z,58.11
2019-02-04T10:08:41.125Z,58.03
2019-02-04T10:09:41.103Z,58.03
2019-02-04T10:10:41.100Z,58.78
2019-02-04T10:11:41.085Z,58.47
2019-02-04T10:12:41.074Z,58.47
2019-02-04T10:13:41.071Z,58.91
2019-02-04T10:14:41.050Z,59.11
2019-02-04T10:15:41.043Z,59.73
2019-02-04T10:16:41.044Z,60.14
2019-02-04T10:17:41.018Z,59.22
2019-02-04T10:18:41.065Z,60.06
2019-02-04T10:19:41.054Z,59.34
2019-02-04T10:20:40.985Z,59.86
2019-02-04T10:21:40.996Z,59.55
2019-02-04T10:22:40.969Z,60.91
2019-02-04T10:23:41.010Z,61.19
2019-02-04T10:24:40.943Z,61.22
2019-02-04T10:25:40.973Z,61.33
2019-02-04T10:26:40.943Z,60.91
2019-02-04T10:27:40.988Z,60.91
2019-02-04T10:28:41.027Z,60.71
2019-02-04T10:29:40.895Z,60.71
2019-02-04T10:30:40.918Z,60.71
2019-02-04T10:31:40.900Z,60.71
2019-02-04T10:32:40.903Z,60.74
2019-02-04T10:33:40.897Z,60.81
2019-02-04T10:34:40.850Z,60.74
2019-02-04T10:35:40.869Z,60.12
2019-02-04T10:36:40.827Z,61.35
2019-02-04T10:37:40.834Z,60.94
2019-02-04T10:38:40.838Z,61.46
2019-02-04T10:39:40.796Z,62.49
2019-02-04T10:40:40.811Z,61.25
2019-02-04T10:41:40.824Z,61.56
2019-02-04T10:42:40.818Z,61.90
2019-02-04T10:43:40.790Z,61.59
2019-02-04T10:44:40.769Z,61.82
2019-02-04T10:45:40.730Z,62.54
2019-02-04T10:46:40.732Z,63.47
2019-02-04T10:47:40.727Z,63.47
2019-02-04T10:48:40.707Z,63.60
2019-02-04T10:49:40.694Z,63.50
2019-02-04T10:50:46.323Z,63.92
2019-02-04T10:51:41.715Z,64.32
2019-02-04T10:52:40.768Z,64.36
2019-02-04T10:53:40.664Z,64.25
2019-02-04T10:54:40.658Z,64.46
2019-02-04T10:55:40.652Z,64.59
2019-02-04T10:56:40.644Z,64.80
2019-02-04T10:57:40.985Z,64.90
2019-02-04T10:58:40.601Z,65.52
2019-02-04T10:59:40.641Z,65.73
2019-02-04T11:00:40.607Z,65.83
2019-02-04T11:01:40.552Z,66.07
2019-02-04T11:02:40.567Z,66.17
2019-02-04T11:03:40.560Z,66.89
2019-02-04T11:04:40.542Z,66.79
2019-02-04T11:05:40.561Z,66.69
2019-02-04T11:06:40.537Z,66.89
2019-02-04T11:07:40.482Z,66.79
2019-02-04T11:08:40.474Z,67.10
2019-02-04T11:09:40.479Z,66.89
2019-02-04T11:10:40.487Z,66.93
2019-02-04T11:11:40.446Z,66.41
2019-02-04T11:12:40.441Z,65.89
2019-02-04T11:13:40.421Z,66.20
2019-02-04T11:14:40.422Z,67.24
2019-02-04T11:15:40.540Z,66.72
2019-02-04T11:16:40.447Z,67.44
2019-02-04T11:17:40.375Z,66.93
2019-02-04T11:18:40.374Z,67.03
2019-02-04T11:19:40.429Z,66.30
2019-02-04T11:20:40.397Z,66.30
2019-02-04T11:21:40.374Z,66.93
2019-02-04T11:22:40.369Z,66.61
2019-02-04T11:23:40.312Z,66.51
2019-02-04T11:24:40.317Z,66.30
2019-02-04T11:25:40.291Z,65.89
2019-02-04T11:26:40.281Z,65.89
2019-02-04T11:27:40.302Z,65.89
2019-02-04T11:28:40.259Z,65.89
2019-02-04T11:29:40.299Z,66.20
2019-02-04T11:30:40.255Z,66.30
2019-02-04T11:31:40.226Z,65.79
2019-02-04T11:32:40.219Z,66.00
2019-02-04T11:33:40.211Z,66.20
2019-02-04T11:34:40.215Z,66.93
2019-02-04T11:35:40.196Z,66.82
2019-02-04T11:36:40.356Z,66.93
2019-02-04T11:37:40.203Z,66.23
2019-02-04T11:38:40.174Z,66.44
2019-02-04T11:39:40.156Z,66.61
2019-02-04T11:40:40.197Z,66.72
2019-02-04T11:41:40.134Z,66.30
2019-02-04T11:42:40.115Z,66.30
2019-02-04T11:43:40.145Z,66.51
2019-02-04T11:44:40.131Z,66.30
2019-02-04T11:45:40.107Z,66.23
2019-02-04T11:46:40.064Z,66.30
2019-02-04T11:47:40.066Z,66.23
2019-02-04T11:48:40.088Z,66.33
2019-02-04T11:49:40.053Z,66.44
2019-02-04T11:50:40.017Z,66.23
2019-02-04T11:51:40.007Z,66.03
2019-02-04T11:52:39.996Z,66.13
2019-02-04T11:53:39.984Z,65.92
2019-02-04T11:54:40.044Z,66.13
2019-02-04T11:55:39.971Z,65.72
2019-02-04T11:56:39.975Z,65.92
2019-02-04T11:57:39.949Z,66.13
2019-02-04T11:58:39.933Z,66.23
2019-02-04T11:59:39.933Z,66.23
2019-02-04T12:00:39.919Z,65.82
2019-02-04T12:01:40.046Z,65.61
2019-02-04T12:02:39.964Z,65.72
2019-02-04T12:03:39.905Z,65.82
2019-02-04T12:04:39.889Z,65.61
2019-02-04T12:05:39.897Z,65.51
2019-02-04T12:06:39.857Z,66.23
2019-02-04T12:07:39.842Z,65.92
2019-02-04T12:08:39.838Z,64.89
2019-02-04T12:09:39.861Z,65.09
2019-02-04T12:10:39.806Z,64.68
2019-02-04T12:11:39.799Z,64.58
2019-02-04T12:12:39.786Z,63.96
2019-02-04T12:13:39.773Z,64.06
2019-02-04T12:14:39.775Z,63.75
2019-02-04T12:15:39.759Z,63.54
2019-02-04T12:16:39.743Z,63.65
2019-02-04T12:17:39.733Z,64.17
2019-02-04T12:18:39.766Z,63.44
2019-02-04T12:19:39.842Z,63.65
2019-02-04T12:20:40.081Z,63.65
2019-02-04T12:21:39.696Z,63.65
2019-02-04T12:22:39.683Z,63.75
2019-02-04T12:23:39.674Z,62.51
2019-02-04T12:24:39.681Z,62.27
2019-02-04T12:25:39.657Z,61.79
2019-02-04T12:26:39.638Z,62.59
2019-02-04T12:27:39.634Z,61.97
2019-02-04T12:28:39.627Z,61.97
2019-02-04T12:29:39.632Z,61.97
2019-02-04T12:30:39.598Z,62.41
2019-02-04T12:31:39.583Z,63.65
2019-02-04T12:32:39.579Z,63.34
2019-02-04T12:33:39.560Z,63.13
2019-02-04T12:34:39.578Z,62.20
2019-02-04T12:35:39.546Z,61.38
2019-02-04T12:36:39.531Z,61.66
2019-02-04T12:37:39.515Z,61.48
2019-02-04T12:38:39.514Z,61.48
2019-02-04T12:39:39.511Z,61.35
2019-02-04T12:40:39.491Z,61.76
2019-02-04T12:41:39.477Z,62.38
2019-02-04T12:42:39.464Z,61.38
2019-02-04T12:43:39.457Z,60.42
2019-02-04T12:44:39.456Z,60.52
2019-02-04T12:45:39.435Z,61.04
2019-02-04T12:46:39.421Z,61.04
2019-02-04T12:47:39.415Z,60.93
2019-02-04T12:48:39.403Z,60.93
2019-02-04T12:49:39.401Z,60.93
2019-02-04T12:50:39.384Z,61.04
2019-02-04T12:51:39.381Z,60.42
2019-02-04T12:52:39.363Z,61.14